This is the latest recevied weather packets stored in our database for station/object VE7GEL. If no packets are shown the sender has not sent any weather packets the latest 10 day(s).
| Time | Temp. | Humidity | Pressure | Rain* | Wind** | Luminosity | Snow |
|---|---|---|---|---|---|---|---|
| 1777238102 | 12.78° C | 71% | 1009.8 hPa | 0 mm | - | 60 W/m² | - |
| 1777238043 | 12.78° C | 72% | 1009.5 hPa | 0 mm | - | 60 W/m² | - |
| 1777237145 | 12.78° C | 78% | 1009.4 hPa | 0 mm | - | 56 W/m² | - |
| 1777236302 | 13.89° C | 68% | 1009.7 hPa | 0 mm | - | 53 W/m² | - |
| 1777236241 | 13.89° C | 67% | 1009.4 hPa | 0 mm | - | 53 W/m² | - |
| 1777235341 | 13.89° C | 62% | 1009.3 hPa | 0 mm | - | 50 W/m² | - |
| 1777234503 | 14.44° C | 55% | 1009.6 hPa | 0 mm | - | 49 W/m² | - |
| 1777234442 | 14.44° C | 54% | 1009.4 hPa | 0 mm | - | 48 W/m² | - |
| 1777233541 | 13.89° C | 57% | 1009.4 hPa | 0 mm | - | 46 W/m² | - |
| 1777232704 | 13.89° C | 59% | 1009.8 hPa | 0 mm | - | 44 W/m² | - |
| 1777232643 | 13.89° C | 59% | 1009.5 hPa | 0 mm | - | 44 W/m² | - |
| 1777231738 | 13.89° C | 60% | 1009.5 hPa | 0 mm | - | 40 W/m² | - |
| 1777230838 | 13.33° C | 60% | 1009.6 hPa | 0 mm | - | 38 W/m² | - |
| 1777229938 | 12.78° C | 63% | 1009.6 hPa | 0 mm | - | 36 W/m² | - |
| 1777229038 | 12.22° C | 66% | 1009.7 hPa | 0 mm | - | 33 W/m² | - |
| 1777228136 | 12.22° C | 69% | 1009.7 hPa | 0 mm | - | 31 W/m² | - |
| 1777227303 | 11.67° C | 71% | 1010 hPa | 0 mm | - | 29 W/m² | - |
| 1777227240 | 11.67° C | 70% | 1009.7 hPa | 0 mm | - | 29 W/m² | - |
| 1777226331 | 11.67° C | 70% | 1009.6 hPa | 0 mm | - | 28 W/m² | - |
| 1777225502 | 11.67° C | 71% | 1009.9 hPa | 0 mm | - | 27 W/m² | - |
| 1777225428 | 11.11° C | 71% | 1009.6 hPa | 0 mm | - | 27 W/m² | - |
| 1777224529 | 11.11° C | 73% | 1009.4 hPa | 0 mm | - | 26 W/m² | - |
| 1777223629 | 11.11° C | 77% | 1009.3 hPa | 0 mm | - | 25 W/m² | - |
| 1777222730 | 12.22° C | 77% | 1009.3 hPa | 0 mm | - | 23 W/m² | - |
| 1777221903 | 12.22° C | 73% | 1009.6 hPa | 0 mm | - | 22 W/m² | - |
* Rain latest hour (hover to see other rain measurements)
** Current wind speed in m/s (hover to see current wind gust speed)